createdAt,value
2023-02-04T00:00:02.115Z,17.70
2023-02-04T00:02:35.150Z,17.70
2023-02-04T00:05:04.952Z,17.80
2023-02-04T00:07:31.643Z,17.70
2023-02-04T00:09:58.467Z,17.70
2023-02-04T00:12:25.291Z,17.90
2023-02-04T00:14:52.084Z,17.70
2023-02-04T00:17:18.831Z,17.70
2023-02-04T00:19:45.538Z,17.70
2023-02-04T00:22:12.395Z,17.70
2023-02-04T00:24:39.099Z,17.70
2023-02-04T00:27:05.960Z,17.70
2023-02-04T00:29:32.741Z,17.70
2023-02-04T00:31:59.727Z,17.70
2023-02-04T00:34:26.538Z,17.70
2023-02-04T00:36:53.273Z,17.70
2023-02-04T00:39:25.862Z,17.70
2023-02-04T00:41:52.549Z,17.70
2023-02-04T00:44:19.296Z,17.80
2023-02-04T00:46:46.150Z,17.70
2023-02-04T00:49:12.867Z,17.70
2023-02-04T00:51:39.948Z,17.70
2023-02-04T00:54:07.087Z,17.70
2023-02-04T00:56:34.442Z,17.70
2023-02-04T00:59:01.068Z,17.70
2023-02-04T01:01:27.782Z,17.70
2023-02-04T01:03:54.514Z,17.70
2023-02-04T01:06:21.359Z,17.70
2023-02-04T01:08:48.180Z,17.70
2023-02-04T01:11:14.906Z,17.70
2023-02-04T01:13:41.661Z,17.70
2023-02-04T01:16:08.511Z,17.70
2023-02-04T01:18:35.659Z,17.70
2023-02-04T01:21:02.317Z,17.70
2023-02-04T01:23:29.004Z,17.70
2023-02-04T01:25:55.694Z,17.70
2023-02-04T01:28:22.417Z,17.70
2023-02-04T01:30:49.149Z,17.70
2023-02-04T01:33:16.038Z,17.70
2023-02-04T01:35:42.704Z,17.70
2023-02-04T01:38:09.657Z,17.70
2023-02-04T01:40:36.503Z,17.70
2023-02-04T01:43:03.211Z,17.70
2023-02-04T01:45:30.845Z,17.70
2023-02-04T01:47:57.621Z,17.70
2023-02-04T01:50:24.306Z,17.70
2023-02-04T01:52:51.012Z,17.70
2023-02-04T01:55:18.951Z,17.70
2023-02-04T01:57:46.027Z,17.70
2023-02-04T02:00:17.058Z,17.70
2023-02-04T02:02:45.146Z,17.70
2023-02-04T02:05:16.018Z,17.70
2023-02-04T02:07:42.770Z,17.70
2023-02-04T02:10:10.107Z,17.70
2023-02-04T02:12:37.008Z,17.70
2023-02-04T02:15:03.795Z,17.70
2023-02-04T02:17:30.535Z,17.70
2023-02-04T02:19:57.220Z,17.70
2023-02-04T02:22:34.175Z,17.70
2023-02-04T02:25:00.868Z,17.70
2023-02-04T02:27:33.649Z,17.80
2023-02-04T02:30:00.373Z,17.70
2023-02-04T02:32:27.029Z,17.70
2023-02-04T02:34:53.716Z,17.70
2023-02-04T02:37:20.479Z,17.70
2023-02-04T02:39:47.191Z,17.70
2023-02-04T02:42:17.426Z,17.70
2023-02-04T02:44:44.598Z,17.70
2023-02-04T02:47:12.623Z,17.70
2023-02-04T02:49:40.886Z,17.70
2023-02-04T02:52:09.636Z,17.70
2023-02-04T02:54:36.330Z,17.70
2023-02-04T02:57:03.031Z,17.70
2023-02-04T02:59:29.705Z,17.70
2023-02-04T03:01:58.019Z,17.70
2023-02-04T03:04:25.327Z,17.70
2023-02-04T03:06:52.168Z,17.70
2023-02-04T03:09:18.867Z,17.70
2023-02-04T03:11:45.498Z,17.70
2023-02-04T03:14:12.139Z,17.70
2023-02-04T03:16:40.477Z,17.70
2023-02-04T03:19:07.293Z,17.70
2023-02-04T03:21:34.405Z,17.70
2023-02-04T03:24:01.107Z,17.70
2023-02-04T03:26:27.784Z,17.70
2023-02-04T03:28:56.635Z,17.70
2023-02-04T03:31:23.844Z,17.70
2023-02-04T03:33:50.811Z,17.70
2023-02-04T03:36:17.487Z,17.70
2023-02-04T03:38:44.197Z,17.70
2023-02-04T03:41:10.892Z,17.70
2023-02-04T03:43:37.535Z,17.70
2023-02-04T03:46:10.373Z,17.70
2023-02-04T03:48:37.162Z,17.70
2023-02-04T03:51:10.263Z,17.70
2023-02-04T03:53:36.957Z,17.70
2023-02-04T03:56:03.818Z,17.70
2023-02-04T03:58:30.461Z,17.70
2023-02-04T04:00:57.092Z,17.70
2023-02-04T04:03:24.369Z,17.70
2023-02-04T04:05:51.681Z,17.70
2023-02-04T04:08:18.777Z,17.70
2023-02-04T04:11:14.442Z,17.70
2023-02-04T04:13:41.227Z,17.70
2023-02-04T04:16:09.098Z,17.70
2023-02-04T04:18:36.035Z,17.70
2023-02-04T04:21:02.913Z,17.70
2023-02-04T04:23:35.732Z,17.70
2023-02-04T04:26:02.695Z,17.70
2023-02-04T04:28:29.408Z,17.70
2023-02-04T04:30:56.262Z,17.70
2023-02-04T04:33:23.158Z,17.80
2023-02-04T04:35:49.988Z,17.70
2023-02-04T04:38:16.618Z,17.70
2023-02-04T04:40:46.700Z,17.70
2023-02-04T04:43:13.355Z,17.70
2023-02-04T04:45:43.080Z,17.60
2023-02-04T04:48:09.770Z,17.70
2023-02-04T04:50:36.675Z,17.70
2023-02-04T04:53:20.547Z,17.70
2023-02-04T04:55:51.069Z,17.70
2023-02-04T04:58:17.731Z,17.70
2023-02-04T05:00:44.449Z,17.70
2023-02-04T05:03:11.394Z,17.70
2023-02-04T05:05:40.947Z,17.70
2023-02-04T05:08:12.999Z,17.70
2023-02-04T05:10:46.836Z,17.70
2023-02-04T05:13:13.738Z,17.70
2023-02-04T05:15:40.489Z,17.70
2023-02-04T05:18:07.200Z,17.70
2023-02-04T05:20:34.622Z,17.70
2023-02-04T05:23:02.637Z,17.70
2023-02-04T05:25:30.272Z,17.70
2023-02-04T05:27:56.989Z,17.70
2023-02-04T05:30:26.949Z,17.70
2023-02-04T05:32:53.673Z,17.70
2023-02-04T05:35:20.494Z,17.70
2023-02-04T05:37:47.164Z,17.70
2023-02-04T05:40:13.887Z,17.70
2023-02-04T05:42:41.882Z,17.70
2023-02-04T05:45:10.609Z,17.70
2023-02-04T05:47:37.322Z,17.70
2023-02-04T05:50:04.214Z,17.70
2023-02-04T05:52:30.849Z,17.70
2023-02-04T05:54:57.594Z,17.70
2023-02-04T05:57:24.332Z,17.70
2023-02-04T05:59:51.085Z,17.70
2023-02-04T06:02:17.804Z,17.70
2023-02-04T06:04:44.976Z,17.70
2023-02-04T06:07:11.796Z,17.70
2023-02-04T06:09:38.504Z,17.60
2023-02-04T06:12:05.485Z,17.70
2023-02-04T06:14:32.190Z,17.60
2023-02-04T06:16:59.925Z,17.60
2023-02-04T06:19:27.041Z,17.70
2023-02-04T06:21:59.840Z,17.70
2023-02-04T06:24:26.856Z,17.70
2023-02-04T06:26:53.606Z,17.70
2023-02-04T06:29:20.540Z,17.60
2023-02-04T06:31:48.974Z,17.50
2023-02-04T06:34:16.030Z,17.40
2023-02-04T06:36:42.776Z,17.30
2023-02-04T06:39:09.458Z,17.20
2023-02-04T06:41:36.258Z,17.20
2023-02-04T06:44:02.923Z,17.10
2023-02-04T06:46:29.720Z,17.10
2023-02-04T06:48:56.846Z,17.10
2023-02-04T06:51:23.552Z,17.20
2023-02-04T06:53:50.494Z,17.10
2023-02-04T06:56:17.156Z,17.10
2023-02-04T06:58:43.847Z,17.10
2023-02-04T07:01:10.557Z,17.20
2023-02-04T07:03:37.288Z,17.10
2023-02-04T07:06:06.757Z,17.10
2023-02-04T07:08:33.795Z,17.10
2023-02-04T07:11:00.552Z,17.10
2023-02-04T07:13:27.259Z,17.10
2023-02-04T07:15:54.111Z,17.10
2023-02-04T07:18:21.173Z,17.10
2023-02-04T07:20:51.101Z,17.10
2023-02-04T07:23:17.762Z,17.10
2023-02-04T07:25:44.463Z,17.10
2023-02-04T07:28:11.277Z,17.10
2023-02-04T07:30:38.701Z,17.10
2023-02-04T07:33:05.368Z,17.10
2023-02-04T07:35:32.722Z,17.10
2023-02-04T07:37:59.879Z,17.10
2023-02-04T07:40:26.686Z,17.00
2023-02-04T07:42:54.696Z,17.10
2023-02-04T07:45:21.825Z,17.00
2023-02-04T07:47:48.928Z,17.00
2023-02-04T07:50:24.932Z,17.10
2023-02-04T07:52:51.594Z,17.00
2023-02-04T07:55:18.448Z,17.10
2023-02-04T07:57:45.097Z,17.00
2023-02-04T08:00:14.177Z,17.00
2023-02-04T08:02:43.937Z,17.10
2023-02-04T08:05:10.795Z,17.00
2023-02-04T08:07:37.525Z,17.00
2023-02-04T08:10:07.842Z,17.10
2023-02-04T08:12:34.707Z,17.10
2023-02-04T08:15:03.999Z,17.10
2023-02-04T08:17:31.863Z,17.00
2023-02-04T08:19:58.652Z,17.10
2023-02-04T08:22:32.237Z,17.10
2023-02-04T08:25:19.344Z,17.10
2023-02-04T08:27:57.623Z,17.10
2023-02-04T08:33:11.823Z,17.10
2023-02-04T08:35:59.814Z,17.10
2023-02-04T08:38:40.423Z,17.10
2023-02-04T08:41:21.247Z,17.20
2023-02-04T08:44:00.581Z,17.20
2023-02-04T08:46:35.618Z,17.20
2023-02-04T08:49:02.657Z,17.20
2023-02-04T08:51:30.340Z,17.20
2023-02-04T08:54:04.367Z,17.20
2023-02-04T08:56:31.427Z,17.10
2023-02-04T08:58:58.598Z,17.10
2023-02-04T09:01:25.448Z,17.10
2023-02-04T09:03:52.438Z,17.10
2023-02-04T09:06:19.494Z,17.10
2023-02-04T09:08:46.380Z,17.20
2023-02-04T09:11:15.034Z,17.20
2023-02-04T09:13:42.176Z,17.10
2023-02-04T09:16:10.955Z,17.20
2023-02-04T09:18:37.759Z,17.20
2023-02-04T09:21:04.736Z,17.20
2023-02-04T09:23:31.539Z,17.20
2023-02-04T09:25:58.295Z,17.30
2023-02-04T09:28:25.151Z,17.30
2023-02-04T09:30:51.982Z,17.30
2023-02-04T09:33:18.875Z,17.20
2023-02-04T09:35:45.556Z,17.20
2023-02-04T09:38:12.548Z,17.30
2023-02-04T09:40:43.342Z,17.30
2023-02-04T09:43:12.446Z,17.30
2023-02-04T09:45:39.171Z,17.30
2023-02-04T09:48:06.485Z,17.30
2023-02-04T09:50:33.947Z,17.30
2023-02-04T09:53:01.942Z,17.30
2023-02-04T09:55:35.889Z,17.30
2023-02-04T09:58:02.830Z,17.30
2023-02-04T10:00:30.012Z,17.30
2023-02-04T10:03:00.249Z,17.30
2023-02-04T10:05:30.745Z,17.20
2023-02-04T10:07:57.830Z,17.20
2023-02-04T10:10:28.421Z,17.20
2023-02-04T10:12:56.469Z,17.30
2023-02-04T10:15:23.363Z,17.20
2023-02-04T10:17:51.304Z,17.20
2023-02-04T10:20:18.946Z,17.30
2023-02-04T10:22:46.194Z,17.30
2023-02-04T10:25:13.812Z,17.30
2023-02-04T10:27:53.037Z,17.30
2023-02-04T10:30:20.975Z,17.20
2023-02-04T10:32:47.923Z,17.20
2023-02-04T10:35:15.270Z,17.30
2023-02-04T10:37:42.386Z,17.20
2023-02-04T10:40:28.514Z,17.20
2023-02-04T10:45:47.252Z,17.30
2023-02-04T10:48:15.794Z,17.20
2023-02-04T10:50:48.745Z,17.20
2023-02-04T10:53:34.824Z,17.30
2023-02-04T10:56:02.512Z,17.20
2023-02-04T10:58:30.147Z,17.30
2023-02-04T11:00:56.965Z,17.20
2023-02-04T11:03:24.493Z,17.30
2023-02-04T11:05:51.278Z,17.30
2023-02-04T11:08:28.700Z,17.30
2023-02-04T11:10:56.894Z,17.30
2023-02-04T11:13:27.635Z,17.30
2023-02-04T11:16:09.659Z,17.30
2023-02-04T11:18:52.799Z,17.30
2023-02-04T11:21:22.910Z,17.30
2023-02-04T11:23:50.167Z,17.20
2023-02-04T11:26:20.330Z,17.20
2023-02-04T11:29:09.487Z,17.30
2023-02-04T11:31:42.588Z,17.30
2023-02-04T11:34:15.813Z,17.30
2023-02-04T11:36:50.785Z,17.30
2023-02-04T11:39:17.930Z,17.20
2023-02-04T11:41:47.708Z,17.20
2023-02-04T11:44:14.739Z,17.30
2023-02-04T11:46:41.461Z,17.30
2023-02-04T11:49:17.289Z,17.30
2023-02-04T11:51:46.435Z,17.30
2023-02-04T11:54:19.197Z,17.30
2023-02-04T11:56:46.294Z,17.30
2023-02-04T11:59:13.395Z,17.30
2023-02-04T12:01:40.247Z,17.30
2023-02-04T12:04:07.950Z,17.30
2023-02-04T12:06:35.724Z,17.30
2023-02-04T12:09:17.773Z,17.30
2023-02-04T12:12:02.888Z,17.30
2023-02-04T12:14:33.553Z,17.30
2023-02-04T12:17:00.374Z,17.30
2023-02-04T12:19:27.768Z,17.30
2023-02-04T12:21:55.785Z,17.30
2023-02-04T12:24:23.256Z,17.30
2023-02-04T12:26:50.578Z,17.30
2023-02-04T12:29:17.296Z,17.30
2023-02-04T12:31:44.281Z,17.30
2023-02-04T12:34:11.117Z,17.30
2023-02-04T12:36:39.502Z,17.30
2023-02-04T12:39:06.387Z,17.30
2023-02-04T12:41:33.162Z,17.40
2023-02-04T12:44:01.407Z,17.40
2023-02-04T12:46:28.675Z,17.30
2023-02-04T12:48:58.733Z,17.40
2023-02-04T12:51:25.552Z,17.30
2023-02-04T12:53:53.371Z,17.30
2023-02-04T12:56:20.775Z,17.40
2023-02-04T12:58:47.521Z,17.30
2023-02-04T13:01:20.309Z,17.40
2023-02-04T13:03:47.004Z,17.30
2023-02-04T13:06:13.848Z,17.30
2023-02-04T13:08:40.672Z,17.30
2023-02-04T13:11:07.475Z,17.30
2023-02-04T13:13:34.266Z,17.30
2023-02-04T13:16:01.100Z,17.30
2023-02-04T13:18:28.665Z,17.30
2023-02-04T13:20:55.392Z,17.40
2023-02-04T13:23:28.233Z,17.40
2023-02-04T13:25:54.953Z,17.20
2023-02-04T13:28:21.738Z,17.40
2023-02-04T13:30:48.513Z,17.40
2023-02-04T13:33:16.762Z,17.40
2023-02-04T13:35:45.311Z,17.30
2023-02-04T13:38:12.000Z,17.40
2023-02-04T13:40:40.690Z,17.40
2023-02-04T13:43:07.448Z,17.40
2023-02-04T13:45:34.542Z,17.30
2023-02-04T13:48:01.479Z,17.30
2023-02-04T13:50:28.716Z,17.40
2023-02-04T13:52:55.454Z,17.40
2023-02-04T13:55:22.421Z,17.40
2023-02-04T13:57:49.104Z,17.40
2023-02-04T14:00:16.641Z,17.40
2023-02-04T14:02:46.517Z,17.40
2023-02-04T14:05:13.249Z,17.40
2023-02-04T14:07:39.928Z,17.40
2023-02-04T14:10:06.909Z,17.40
2023-02-04T14:12:33.633Z,17.40
2023-02-04T14:15:00.411Z,17.40
2023-02-04T14:17:27.326Z,17.40
2023-02-04T14:19:54.119Z,17.40
2023-02-04T14:22:20.923Z,17.40
2023-02-04T14:24:47.676Z,17.40
2023-02-04T14:27:14.553Z,17.40
2023-02-04T14:29:41.348Z,17.40
2023-02-04T14:32:09.529Z,17.40
2023-02-04T14:34:36.308Z,17.40
2023-02-04T14:37:03.577Z,17.40
2023-02-04T14:39:30.216Z,17.40
2023-02-04T14:41:57.988Z,17.40
2023-02-04T14:44:25.597Z,17.40
2023-02-04T14:46:52.405Z,17.40
2023-02-04T14:49:19.596Z,17.40
2023-02-04T14:51:46.648Z,17.40
2023-02-04T14:54:13.722Z,17.40
2023-02-04T14:56:40.491Z,17.40
2023-02-04T14:59:07.340Z,17.40
2023-02-04T15:01:34.221Z,17.40
2023-02-04T15:04:01.915Z,17.40
2023-02-04T15:06:33.323Z,17.40
2023-02-04T15:09:00.252Z,17.40
2023-02-04T15:11:27.436Z,17.40
2023-02-04T15:13:54.735Z,17.40
2023-02-04T15:16:22.110Z,17.40
2023-02-04T15:18:49.018Z,17.40
2023-02-04T15:21:17.677Z,17.40
2023-02-04T15:23:47.334Z,17.40
2023-02-04T15:26:14.480Z,17.40
2023-02-04T15:28:41.308Z,17.40
2023-02-04T15:31:08.419Z,17.40
2023-02-04T15:33:35.171Z,17.40
2023-02-04T15:36:03.526Z,17.40
2023-02-04T15:38:30.262Z,17.40
2023-02-04T15:40:57.038Z,17.40
2023-02-04T15:43:24.070Z,17.40
2023-02-04T15:45:57.351Z,17.40
2023-02-04T15:48:28.664Z,17.40
2023-02-04T15:50:55.640Z,17.40
2023-02-04T15:53:24.737Z,17.40
2023-02-04T15:55:51.658Z,17.40
2023-02-04T15:58:19.476Z,17.40
2023-02-04T16:00:46.151Z,17.40
2023-02-04T16:03:12.989Z,17.40
2023-02-04T16:05:39.861Z,17.40
2023-02-04T16:08:07.615Z,17.40
2023-02-04T16:10:49.310Z,17.40
2023-02-04T16:13:16.331Z,17.40
2023-02-04T16:15:43.263Z,17.40
2023-02-04T16:18:09.958Z,17.40
2023-02-04T16:20:37.865Z,17.40
2023-02-04T16:23:06.975Z,17.40
2023-02-04T16:25:36.519Z,17.30
2023-02-04T16:28:09.528Z,17.40
2023-02-04T16:30:41.789Z,17.40
2023-02-04T16:33:12.066Z,17.40
2023-02-04T16:35:58.546Z,17.40
2023-02-04T16:38:25.688Z,17.40
2023-02-04T16:40:52.762Z,17.40
2023-02-04T16:43:19.913Z,17.40
2023-02-04T16:45:57.968Z,17.40
2023-02-04T16:48:28.598Z,17.40
2023-02-04T16:50:55.394Z,17.40
2023-02-04T16:53:22.792Z,17.50
2023-02-04T16:55:50.030Z,17.40
2023-02-04T16:58:24.054Z,17.40
2023-02-04T17:00:52.414Z,17.40
2023-02-04T17:03:19.355Z,17.40
2023-02-04T17:05:46.103Z,17.40
2023-02-04T17:08:15.120Z,17.40
2023-02-04T17:11:02.608Z,17.40
2023-02-04T17:13:30.272Z,17.40
2023-02-04T17:16:01.403Z,17.40
2023-02-04T17:18:29.386Z,17.40
2023-02-04T17:21:02.802Z,17.40
2023-02-04T17:23:29.530Z,17.40
2023-02-04T17:26:03.641Z,17.40
2023-02-04T17:28:30.228Z,17.40
2023-02-04T17:30:57.570Z,17.40
2023-02-04T17:33:26.884Z,17.40
2023-02-04T17:35:54.831Z,17.40
2023-02-04T17:38:22.624Z,17.40
2023-02-04T17:40:50.751Z,17.40
2023-02-04T17:43:21.729Z,17.40
2023-02-04T17:45:52.693Z,17.40
2023-02-04T17:48:19.514Z,17.40
2023-02-04T17:50:46.459Z,17.40
2023-02-04T17:53:13.502Z,17.40
2023-02-04T17:55:42.700Z,17.40
2023-02-04T17:58:13.992Z,17.40
2023-02-04T18:00:46.239Z,17.40
2023-02-04T18:03:14.254Z,17.40
2023-02-04T18:05:46.103Z,17.40
2023-02-04T18:08:20.909Z,17.40
2023-02-04T18:10:50.083Z,17.40
2023-02-04T18:13:24.277Z,17.40
2023-02-04T18:15:52.493Z,17.40
2023-02-04T18:18:32.695Z,17.40
2023-02-04T18:21:18.384Z,17.30
2023-02-04T18:23:46.310Z,17.30
2023-02-04T18:26:17.938Z,17.40
2023-02-04T18:28:46.035Z,17.40
2023-02-04T18:31:31.075Z,17.40
2023-02-04T18:33:58.362Z,17.40
2023-02-04T18:36:30.203Z,17.40
2023-02-04T18:38:57.381Z,17.40
2023-02-04T18:41:28.157Z,17.30
2023-02-04T18:44:15.338Z,17.40
2023-02-04T18:46:49.146Z,17.40
2023-02-04T18:49:34.632Z,17.50
2023-02-04T18:52:07.692Z,17.50
2023-02-04T18:54:37.959Z,17.50
2023-02-04T18:57:18.426Z,17.50
2023-02-04T18:59:45.174Z,17.50
2023-02-04T19:02:45.758Z,17.50
2023-02-04T19:05:29.240Z,17.40
2023-02-04T19:08:06.239Z,17.40
2023-02-04T19:10:35.635Z,17.50
2023-02-04T19:13:19.304Z,17.40
2023-02-04T19:15:58.441Z,17.40
2023-02-04T19:18:29.173Z,17.40
2023-02-04T19:20:56.181Z,17.40
2023-02-04T19:23:24.203Z,17.40
2023-02-04T19:26:10.817Z,17.40
2023-02-04T19:28:37.786Z,17.40
2023-02-04T19:31:08.146Z,17.40
2023-02-04T19:33:42.832Z,17.40
2023-02-04T19:36:41.908Z,17.40
2023-02-04T19:39:15.005Z,17.40
2023-02-04T19:41:53.996Z,17.30
2023-02-04T19:44:52.818Z,17.40
2023-02-04T19:47:24.704Z,17.30
2023-02-04T19:49:52.089Z,17.40
2023-02-04T19:52:29.276Z,17.30
2023-02-04T19:54:59.543Z,17.30
2023-02-04T19:57:27.337Z,17.30
2023-02-04T19:59:54.680Z,17.30
2023-02-04T20:02:32.935Z,17.30
2023-02-04T20:05:01.115Z,17.40
2023-02-04T20:07:30.047Z,17.30
2023-02-04T20:10:05.905Z,17.40
2023-02-04T20:12:33.968Z,17.30
2023-02-04T20:15:02.342Z,17.40
2023-02-04T20:17:33.094Z,17.30
2023-02-04T20:20:01.128Z,17.30
2023-02-04T20:22:30.305Z,17.30
2023-02-04T20:25:26.199Z,17.30
2023-02-04T20:27:55.576Z,17.40
2023-02-04T20:30:28.943Z,17.40
2023-02-04T20:32:56.437Z,17.30
2023-02-04T20:35:23.106Z,17.30
2023-02-04T20:37:51.458Z,17.30
2023-02-04T20:40:21.548Z,17.30
2023-02-04T20:42:54.824Z,17.40
2023-02-04T20:45:34.411Z,17.30
2023-02-04T20:48:25.294Z,17.30
2023-02-04T20:50:56.575Z,17.30
2023-02-04T20:53:39.126Z,17.30
2023-02-04T20:56:10.979Z,17.30
2023-02-04T20:58:38.297Z,17.30
2023-02-04T21:01:17.296Z,17.30
2023-02-04T21:03:45.762Z,17.30
2023-02-04T21:06:18.577Z,17.30
2023-02-04T21:08:46.279Z,17.30
2023-02-04T21:11:12.970Z,17.30
2023-02-04T21:13:40.994Z,17.30
2023-02-04T21:16:08.832Z,17.30
2023-02-04T21:18:35.649Z,17.40
2023-02-04T21:21:02.943Z,17.30
2023-02-04T21:23:36.309Z,17.30
2023-02-04T21:26:03.233Z,17.30
2023-02-04T21:28:30.587Z,17.30
2023-02-04T21:30:57.519Z,17.30
2023-02-04T21:33:24.391Z,17.30
2023-02-04T21:35:51.082Z,17.30
2023-02-04T21:38:17.768Z,17.30
2023-02-04T21:40:44.537Z,17.30
2023-02-04T21:43:11.340Z,17.30
2023-02-04T21:45:39.562Z,17.30
2023-02-04T21:48:07.846Z,17.30
2023-02-04T21:50:40.019Z,17.30
2023-02-04T21:53:07.264Z,17.30
2023-02-04T21:55:34.484Z,17.30
2023-02-04T21:58:01.430Z,17.30
2023-02-04T22:00:28.195Z,17.30
2023-02-04T22:02:54.984Z,17.20
2023-02-04T22:05:21.794Z,17.30
2023-02-04T22:07:48.678Z,17.30
2023-02-04T22:10:16.451Z,17.30
2023-02-04T22:12:43.150Z,17.30
2023-02-04T22:15:09.971Z,17.30
2023-02-04T22:17:42.915Z,17.30
2023-02-04T22:20:15.786Z,17.20
2023-02-04T22:22:45.742Z,17.30
2023-02-04T22:25:13.005Z,17.30
2023-02-04T22:27:39.886Z,17.30
2023-02-04T22:30:06.950Z,17.30
2023-02-04T22:32:33.659Z,17.30
2023-02-04T22:35:00.463Z,17.30
2023-02-04T22:37:27.296Z,17.30
2023-02-04T22:39:54.118Z,17.30
2023-02-04T22:42:20.786Z,17.30
2023-02-04T22:44:50.682Z,17.20
2023-02-04T22:47:17.343Z,17.30
2023-02-04T22:49:44.071Z,17.20
2023-02-04T22:52:10.912Z,17.20
2023-02-04T22:54:37.945Z,17.20
2023-02-04T22:57:04.632Z,17.20
2023-02-04T22:59:31.329Z,17.20
2023-02-04T23:01:58.061Z,17.20
2023-02-04T23:04:24.767Z,17.20
2023-02-04T23:06:51.477Z,17.10
2023-02-04T23:09:18.312Z,17.20
2023-02-04T23:11:48.070Z,17.20
2023-02-04T23:14:17.876Z,17.20
2023-02-04T23:16:47.031Z,17.10
2023-02-04T23:19:13.794Z,17.10
2023-02-04T23:21:40.561Z,17.20
2023-02-04T23:24:07.323Z,17.20
2023-02-04T23:26:33.983Z,17.20
2023-02-04T23:29:01.220Z,17.20
2023-02-04T23:31:28.322Z,17.10
2023-02-04T23:33:55.041Z,17.10
2023-02-04T23:36:21.714Z,17.20
2023-02-04T23:38:48.389Z,17.10
2023-02-04T23:41:22.366Z,17.20
2023-02-04T23:43:49.048Z,17.20
2023-02-04T23:46:21.843Z,17.10
2023-02-04T23:48:48.513Z,17.20
2023-02-04T23:51:18.216Z,17.10
2023-02-04T23:53:44.879Z,17.20
2023-02-04T23:56:11.562Z,17.10
2023-02-04T23:58:38.214Z,17.10
